sensor_id;sensor_type;location;lat;lon;timestamp;temperature;humidity
75786;DHT22;64402;44.708;37.644;2023-12-14T00:00:31;7.93;85.71
75786;DHT22;64402;44.708;37.644;2023-12-14T00:02:58;8.03;85.71
75786;DHT22;64402;44.708;37.644;2023-12-14T00:05:24;8.12;86.07
75786;DHT22;64402;44.708;37.644;2023-12-14T00:07:50;8.16;85.53
75786;DHT22;64402;44.708;37.644;2023-12-14T00:10:16;8.21;85.45
75786;DHT22;64402;44.708;37.644;2023-12-14T00:12:44;8.24;85.86
75786;DHT22;64402;44.708;37.644;2023-12-14T00:15:10;8.29;84.94
75786;DHT22;64402;44.708;37.644;2023-12-14T00:17:36;8.26;85.06
75786;DHT22;64402;44.708;37.644;2023-12-14T00:20:03;8.22;84.79
75786;DHT22;64402;44.708;37.644;2023-12-14T00:22:30;8.17;85.03
75786;DHT22;64402;44.708;37.644;2023-12-14T00:24:56;8.23;84.55
75786;DHT22;64402;44.708;37.644;2023-12-14T00:27:22;8.30;85.20
75786;DHT22;64402;44.708;37.644;2023-12-14T00:29:48;8.36;85.24
75786;DHT22;64402;44.708;37.644;2023-12-14T00:32:14;8.32;85.00
75786;DHT22;64402;44.708;37.644;2023-12-14T00:34:40;8.32;85.54
75786;DHT22;64402;44.708;37.644;2023-12-14T00:37:07;8.37;85.36
75786;DHT22;64402;44.708;37.644;2023-12-14T00:39:33;8.35;83.68
75786;DHT22;64402;44.708;37.644;2023-12-14T00:41:59;8.32;85.00
75786;DHT22;64402;44.708;37.644;2023-12-14T00:44:25;8.35;84.99
75786;DHT22;64402;44.708;37.644;2023-12-14T00:46:51;8.34;84.71
75786;DHT22;64402;44.708;37.644;2023-12-14T00:49:17;8.34;85.07
75786;DHT22;64402;44.708;37.644;2023-12-14T00:51:46;8.36;85.06
75786;DHT22;64402;44.708;37.644;2023-12-14T00:54:13;8.32;85.06
75786;DHT22;64402;44.708;37.644;2023-12-14T00:56:39;8.33;85.11
75786;DHT22;64402;44.708;37.644;2023-12-14T00:59:05;8.38;84.93
75786;DHT22;64402;44.708;37.644;2023-12-14T01:01:31;8.36;84.24
75786;DHT22;64402;44.708;37.644;2023-12-14T01:03:58;8.29;84.52
75786;DHT22;64402;44.708;37.644;2023-12-14T01:06:25;8.31;85.11
75786;DHT22;64402;44.708;37.644;2023-12-14T01:08:51;8.32;85.06
75786;DHT22;64402;44.708;37.644;2023-12-14T01:11:17;8.30;85.24
75786;DHT22;64402;44.708;37.644;2023-12-14T01:13:44;8.35;85.84
75786;DHT22;64402;44.708;37.644;2023-12-14T01:16:10;8.37;85.42
75786;DHT22;64402;44.708;37.644;2023-12-14T01:18:36;8.38;85.71
75786;DHT22;64402;44.708;37.644;2023-12-14T01:21:02;8.35;85.63
75786;DHT22;64402;44.708;37.644;2023-12-14T01:23:28;8.27;85.21
75786;DHT22;64402;44.708;37.644;2023-12-14T01:25:55;8.14;85.82
75786;DHT22;64402;44.708;37.644;2023-12-14T01:28:21;7.99;85.97
75786;DHT22;64402;44.708;37.644;2023-12-14T01:30:47;7.86;86.93
75786;DHT22;64402;44.708;37.644;2023-12-14T01:33:13;7.78;86.99
75786;DHT22;64402;44.708;37.644;2023-12-14T01:35:40;7.75;86.91
75786;DHT22;64402;44.708;37.644;2023-12-14T01:38:07;7.74;87.70
75786;DHT22;64402;44.708;37.644;2023-12-14T01:40:33;7.78;88.14
75786;DHT22;64402;44.708;37.644;2023-12-14T01:43:09;7.77;86.90
75786;DHT22;64402;44.708;37.644;2023-12-14T01:45:38;7.78;87.03
75786;DHT22;64402;44.708;37.644;2023-12-14T01:48:05;7.75;86.09
75786;DHT22;64402;44.708;37.644;2023-12-14T01:50:31;7.61;87.24
75786;DHT22;64402;44.708;37.644;2023-12-14T01:52:57;7.62;87.06
75786;DHT22;64402;44.708;37.644;2023-12-14T01:55:23;7.64;87.95
75786;DHT22;64402;44.708;37.644;2023-12-14T01:57:51;7.59;87.53
75786;DHT22;64402;44.708;37.644;2023-12-14T02:00:34;7.54;87.77
75786;DHT22;64402;44.708;37.644;2023-12-14T02:03:02;7.48;87.84
75786;DHT22;64402;44.708;37.644;2023-12-14T02:05:28;7.39;87.71
75786;DHT22;64402;44.708;37.644;2023-12-14T02:07:55;7.33;88.43
75786;DHT22;64402;44.708;37.644;2023-12-14T02:10:22;7.30;88.56
75786;DHT22;64402;44.708;37.644;2023-12-14T02:12:48;7.39;88.24
75786;DHT22;64402;44.708;37.644;2023-12-14T02:15:15;7.40;87.56
75786;DHT22;64402;44.708;37.644;2023-12-14T02:17:41;7.34;87.19
75786;DHT22;64402;44.708;37.644;2023-12-14T02:20:07;7.31;86.97
75786;DHT22;64402;44.708;37.644;2023-12-14T02:22:57;7.31;87.78
75786;DHT22;64402;44.708;37.644;2023-12-14T02:25:23;7.37;87.42
75786;DHT22;64402;44.708;37.644;2023-12-14T02:27:51;7.40;87.41
75786;DHT22;64402;44.708;37.644;2023-12-14T02:30:19;7.41;87.75
75786;DHT22;64402;44.708;37.644;2023-12-14T02:32:46;7.42;87.04
75786;DHT22;64402;44.708;37.644;2023-12-14T02:35:12;7.39;87.64
75786;DHT22;64402;44.708;37.644;2023-12-14T02:37:38;7.33;87.47
75786;DHT22;64402;44.708;37.644;2023-12-14T02:40:08;7.35;87.10
75786;DHT22;64402;44.708;37.644;2023-12-14T02:42:34;7.39;87.29
75786;DHT22;64402;44.708;37.644;2023-12-14T02:45:01;7.39;87.60
75786;DHT22;64402;44.708;37.644;2023-12-14T02:47:28;7.40;86.74
75786;DHT22;64402;44.708;37.644;2023-12-14T02:49:55;7.41;86.51
75786;DHT22;64402;44.708;37.644;2023-12-14T02:52:22;7.39;87.26
75786;DHT22;64402;44.708;37.644;2023-12-14T02:54:48;7.40;87.09
75786;DHT22;64402;44.708;37.644;2023-12-14T02:57:14;7.43;86.73
75786;DHT22;64402;44.708;37.644;2023-12-14T02:59:40;7.42;86.09
75786;DHT22;64402;44.708;37.644;2023-12-14T03:02:06;7.32;86.25
75786;DHT22;64402;44.708;37.644;2023-12-14T03:04:33;7.30;85.84
75786;DHT22;64402;44.708;37.644;2023-12-14T03:06:59;7.13;86.77
75786;DHT22;64402;44.708;37.644;2023-12-14T03:09:28;7.20;87.21
75786;DHT22;64402;44.708;37.644;2023-12-14T03:11:55;7.28;87.36
75786;DHT22;64402;44.708;37.644;2023-12-14T03:14:22;7.34;87.27
75786;DHT22;64402;44.708;37.644;2023-12-14T03:16:48;7.42;87.44
75786;DHT22;64402;44.708;37.644;2023-12-14T03:19:15;7.47;86.82
75786;DHT22;64402;44.708;37.644;2023-12-14T03:21:44;7.54;86.88
75786;DHT22;64402;44.708;37.644;2023-12-14T03:24:10;7.56;86.91
75786;DHT22;64402;44.708;37.644;2023-12-14T03:26:36;7.57;86.95
75786;DHT22;64402;44.708;37.644;2023-12-14T03:29:03;7.60;86.97
75786;DHT22;64402;44.708;37.644;2023-12-14T03:31:29;7.55;86.57
75786;DHT22;64402;44.708;37.644;2023-12-14T03:33:55;7.54;86.90
75786;DHT22;64402;44.708;37.644;2023-12-14T03:36:21;7.53;86.48
75786;DHT22;64402;44.708;37.644;2023-12-14T03:38:51;7.55;87.05
75786;DHT22;64402;44.708;37.644;2023-12-14T03:41:18;7.53;86.78
75786;DHT22;64402;44.708;37.644;2023-12-14T03:43:44;7.43;86.97
75786;DHT22;64402;44.708;37.644;2023-12-14T03:46:10;7.44;86.73
75786;DHT22;64402;44.708;37.644;2023-12-14T03:48:37;7.47;87.02
75786;DHT22;64402;44.708;37.644;2023-12-14T03:51:04;7.46;87.88
75786;DHT22;64402;44.708;37.644;2023-12-14T03:53:30;7.44;87.78
75786;DHT22;64402;44.708;37.644;2023-12-14T03:56:00;7.48;87.58
75786;DHT22;64402;44.708;37.644;2023-12-14T03:58:26;7.52;88.31
75786;DHT22;64402;44.708;37.644;2023-12-14T04:00:52;7.57;87.72
75786;DHT22;64402;44.708;37.644;2023-12-14T04:03:19;7.58;87.49
75786;DHT22;64402;44.708;37.644;2023-12-14T04:05:45;7.54;87.31
75786;DHT22;64402;44.708;37.644;2023-12-14T04:08:11;7.57;87.79
75786;DHT22;64402;44.708;37.644;2023-12-14T04:10:37;7.54;87.16
75786;DHT22;64402;44.708;37.644;2023-12-14T04:13:04;7.54;87.48
75786;DHT22;64402;44.708;37.644;2023-12-14T04:15:30;7.57;87.85
75786;DHT22;64402;44.708;37.644;2023-12-14T04:17:56;7.62;88.25
75786;DHT22;64402;44.708;37.644;2023-12-14T04:20:22;7.82;88.32
75786;DHT22;64402;44.708;37.644;2023-12-14T04:22:48;7.93;88.44
75786;DHT22;64402;44.708;37.644;2023-12-14T04:25:15;8.09;88.05
75786;DHT22;64402;44.708;37.644;2023-12-14T04:27:41;8.28;87.69
75786;DHT22;64402;44.708;37.644;2023-12-14T04:30:07;8.46;86.44
75786;DHT22;64402;44.708;37.644;2023-12-14T04:32:38;8.61;86.32
75786;DHT22;64402;44.708;37.644;2023-12-14T04:35:05;8.70;85.51
75786;DHT22;64402;44.708;37.644;2023-12-14T04:37:31;8.73;85.09
75786;DHT22;64402;44.708;37.644;2023-12-14T04:39:58;8.76;85.20
75786;DHT22;64402;44.708;37.644;2023-12-14T04:42:24;8.76;84.85
75786;DHT22;64402;44.708;37.644;2023-12-14T04:44:50;8.81;84.17
75786;DHT22;64402;44.708;37.644;2023-12-14T04:47:16;8.85;83.84
75786;DHT22;64402;44.708;37.644;2023-12-14T04:49:42;8.90;83.11
75786;DHT22;64402;44.708;37.644;2023-12-14T04:52:09;8.96;82.75
75786;DHT22;64402;44.708;37.644;2023-12-14T04:54:35;9.01;83.18
75786;DHT22;64402;44.708;37.644;2023-12-14T04:57:04;9.07;83.08
75786;DHT22;64402;44.708;37.644;2023-12-14T04:59:30;9.10;82.91
75786;DHT22;64402;44.708;37.644;2023-12-14T05:01:56;9.14;82.94
75786;DHT22;64402;44.708;37.644;2023-12-14T05:04:23;9.12;82.94
75786;DHT22;64402;44.708;37.644;2023-12-14T05:06:49;9.14;83.07
75786;DHT22;64402;44.708;37.644;2023-12-14T05:09:15;9.20;83.25
75786;DHT22;64402;44.708;37.644;2023-12-14T05:11:41;9.29;83.10
75786;DHT22;64402;44.708;37.644;2023-12-14T05:14:07;9.36;82.86
75786;DHT22;64402;44.708;37.644;2023-12-14T05:16:34;9.40;83.07
75786;DHT22;64402;44.708;37.644;2023-12-14T05:19:00;9.44;82.45
75786;DHT22;64402;44.708;37.644;2023-12-14T05:21:26;9.47;82.23
75786;DHT22;64402;44.708;37.644;2023-12-14T05:23:52;9.51;82.09
75786;DHT22;64402;44.708;37.644;2023-12-14T05:26:19;9.52;81.86
75786;DHT22;64402;44.708;37.644;2023-12-14T05:28:45;9.53;82.00
75786;DHT22;64402;44.708;37.644;2023-12-14T05:31:12;9.59;82.07
75786;DHT22;64402;44.708;37.644;2023-12-14T05:33:38;9.64;81.19
75786;DHT22;64402;44.708;37.644;2023-12-14T05:36:08;9.72;81.26
75786;DHT22;64402;44.708;37.644;2023-12-14T05:38:38;9.80;80.94
75786;DHT22;64402;44.708;37.644;2023-12-14T05:41:05;9.81;81.04
75786;DHT22;64402;44.708;37.644;2023-12-14T05:43:31;9.83;81.17
75786;DHT22;64402;44.708;37.644;2023-12-14T05:45:58;9.90;80.81
75786;DHT22;64402;44.708;37.644;2023-12-14T05:48:24;9.95;80.40
75786;DHT22;64402;44.708;37.644;2023-12-14T05:50:52;10.04;80.40
75786;DHT22;64402;44.708;37.644;2023-12-14T05:53:18;10.11;80.36
75786;DHT22;64402;44.708;37.644;2023-12-14T05:55:45;10.18;79.90
75786;DHT22;64402;44.708;37.644;2023-12-14T05:58:11;10.24;79.73
75786;DHT22;64402;44.708;37.644;2023-12-14T06:00:37;10.30;78.37
75786;DHT22;64402;44.708;37.644;2023-12-14T06:03:04;10.39;79.43
75786;DHT22;64402;44.708;37.644;2023-12-14T06:05:31;10.41;79.25
75786;DHT22;64402;44.708;37.644;2023-12-14T06:07:57;10.45;79.03
75786;DHT22;64402;44.708;37.644;2023-12-14T06:10:23;10.50;79.36
75786;DHT22;64402;44.708;37.644;2023-12-14T06:12:50;10.57;78.97
75786;DHT22;64402;44.708;37.644;2023-12-14T06:15:16;10.60;79.08
75786;DHT22;64402;44.708;37.644;2023-12-14T06:17:42;10.65;78.31
75786;DHT22;64402;44.708;37.644;2023-12-14T06:20:09;10.72;77.65
75786;DHT22;64402;44.708;37.644;2023-12-14T06:22:36;10.80;77.82
75786;DHT22;64402;44.708;37.644;2023-12-14T06:25:03;10.86;77.86
75786;DHT22;64402;44.708;37.644;2023-12-14T06:27:29;10.90;77.61
75786;DHT22;64402;44.708;37.644;2023-12-14T06:29:56;10.97;77.44
75786;DHT22;64402;44.708;37.644;2023-12-14T06:32:22;11.05;77.39
75786;DHT22;64402;44.708;37.644;2023-12-14T06:34:48;11.09;76.89
75786;DHT22;64402;44.708;37.644;2023-12-14T06:37:14;11.12;76.96
75786;DHT22;64402;44.708;37.644;2023-12-14T06:39:41;11.17;76.18
75786;DHT22;64402;44.708;37.644;2023-12-14T06:42:07;11.27;75.96
75786;DHT22;64402;44.708;37.644;2023-12-14T06:44:34;11.27;75.56
75786;DHT22;64402;44.708;37.644;2023-12-14T06:47:00;11.32;75.87
75786;DHT22;64402;44.708;37.644;2023-12-14T06:49:26;11.39;75.59
75786;DHT22;64402;44.708;37.644;2023-12-14T06:51:53;11.45;75.92
75786;DHT22;64402;44.708;37.644;2023-12-14T06:54:19;11.44;76.34
75786;DHT22;64402;44.708;37.644;2023-12-14T06:56:45;11.45;76.05
75786;DHT22;64402;44.708;37.644;2023-12-14T06:59:11;11.56;76.12
75786;DHT22;64402;44.708;37.644;2023-12-14T07:01:38;11.64;75.14
75786;DHT22;64402;44.708;37.644;2023-12-14T07:04:04;11.67;74.15
75786;DHT22;64402;44.708;37.644;2023-12-14T07:06:31;11.69;74.51
75786;DHT22;64402;44.708;37.644;2023-12-14T07:09:03;11.72;74.34
75786;DHT22;64402;44.708;37.644;2023-12-14T07:11:29;11.87;74.31
75786;DHT22;64402;44.708;37.644;2023-12-14T07:13:56;11.92;73.03
75786;DHT22;64402;44.708;37.644;2023-12-14T07:16:22;11.94;73.49
75786;DHT22;64402;44.708;37.644;2023-12-14T07:18:48;12.02;73.71
75786;DHT22;64402;44.708;37.644;2023-12-14T07:21:15;12.14;72.98
75786;DHT22;64402;44.708;37.644;2023-12-14T07:23:41;12.13;73.26
75786;DHT22;64402;44.708;37.644;2023-12-14T07:26:07;12.23;73.24
75786;DHT22;64402;44.708;37.644;2023-12-14T07:28:33;12.27;73.07
75786;DHT22;64402;44.708;37.644;2023-12-14T07:31:00;12.28;72.63
75786;DHT22;64402;44.708;37.644;2023-12-14T07:33:26;12.31;73.45
75786;DHT22;64402;44.708;37.644;2023-12-14T07:35:52;12.31;73.61
75786;DHT22;64402;44.708;37.644;2023-12-14T07:38:19;12.32;73.31
75786;DHT22;64402;44.708;37.644;2023-12-14T07:40:45;12.40;74.12
75786;DHT22;64402;44.708;37.644;2023-12-14T07:43:12;12.42;73.06
75786;DHT22;64402;44.708;37.644;2023-12-14T07:45:39;12.26;74.10
75786;DHT22;64402;44.708;37.644;2023-12-14T07:48:05;12.34;73.90
75786;DHT22;64402;44.708;37.644;2023-12-14T07:50:31;12.48;74.02
75786;DHT22;64402;44.708;37.644;2023-12-14T07:52:58;12.53;72.21
75786;DHT22;64402;44.708;37.644;2023-12-14T07:55:24;12.55;72.44
75786;DHT22;64402;44.708;37.644;2023-12-14T07:57:50;12.55;72.38
75786;DHT22;64402;44.708;37.644;2023-12-14T08:00:16;12.53;72.67
75786;DHT22;64402;44.708;37.644;2023-12-14T08:02:43;12.59;73.06
75786;DHT22;64402;44.708;37.644;2023-12-14T08:05:09;12.59;72.92
75786;DHT22;64402;44.708;37.644;2023-12-14T08:07:36;12.65;72.09
75786;DHT22;64402;44.708;37.644;2023-12-14T08:10:02;12.58;72.61
75786;DHT22;64402;44.708;37.644;2023-12-14T08:12:29;12.62;72.49
75786;DHT22;64402;44.708;37.644;2023-12-14T08:14:55;12.55;71.59
75786;DHT22;64402;44.708;37.644;2023-12-14T08:17:21;12.56;71.92
75786;DHT22;64402;44.708;37.644;2023-12-14T08:19:48;12.64;70.89
75786;DHT22;64402;44.708;37.644;2023-12-14T08:22:14;12.71;70.10
75786;DHT22;64402;44.708;37.644;2023-12-14T08:24:41;12.74;70.64
75786;DHT22;64402;44.708;37.644;2023-12-14T08:27:08;12.77;70.27
75786;DHT22;64402;44.708;37.644;2023-12-14T08:29:34;12.91;70.28
75786;DHT22;64402;44.708;37.644;2023-12-14T08:32:00;12.91;70.70
75786;DHT22;64402;44.708;37.644;2023-12-14T08:34:27;12.96;70.19
75786;DHT22;64402;44.708;37.644;2023-12-14T08:36:54;13.15;69.97
75786;DHT22;64402;44.708;37.644;2023-12-14T08:39:20;13.19;69.67
75786;DHT22;64402;44.708;37.644;2023-12-14T08:41:46;13.34;69.36
75786;DHT22;64402;44.708;37.644;2023-12-14T08:44:14;13.20;68.94
75786;DHT22;64402;44.708;37.644;2023-12-14T08:46:46;13.23;69.29
75786;DHT22;64402;44.708;37.644;2023-12-14T08:49:13;13.21;69.36
75786;DHT22;64402;44.708;37.644;2023-12-14T08:51:40;13.18;69.18
75786;DHT22;64402;44.708;37.644;2023-12-14T08:54:06;13.10;68.31
75786;DHT22;64402;44.708;37.644;2023-12-14T08:56:32;13.01;69.19
75786;DHT22;64402;44.708;37.644;2023-12-14T08:58:59;12.88;69.68
75786;DHT22;64402;44.708;37.644;2023-12-14T09:01:26;12.86;70.48
75786;DHT22;64402;44.708;37.644;2023-12-14T09:03:52;12.94;70.39
75786;DHT22;64402;44.708;37.644;2023-12-14T09:06:18;12.91;70.28
75786;DHT22;64402;44.708;37.644;2023-12-14T09:08:45;12.78;71.44
75786;DHT22;64402;44.708;37.644;2023-12-14T09:11:11;12.89;71.39
75786;DHT22;64402;44.708;37.644;2023-12-14T09:13:38;12.94;71.20
75786;DHT22;64402;44.708;37.644;2023-12-14T09:16:05;13.02;70.68
75786;DHT22;64402;44.708;37.644;2023-12-14T09:18:31;12.97;71.25
75786;DHT22;64402;44.708;37.644;2023-12-14T09:20:57;12.88;71.96
75786;DHT22;64402;44.708;37.644;2023-12-14T09:23:23;12.81;71.92
75786;DHT22;64402;44.708;37.644;2023-12-14T09:25:50;12.79;72.17
75786;DHT22;64402;44.708;37.644;2023-12-14T09:28:16;12.80;72.87
75786;DHT22;64402;44.708;37.644;2023-12-14T09:30:42;12.84;72.98
75786;DHT22;64402;44.708;37.644;2023-12-14T09:33:08;12.77;72.61
75786;DHT22;64402;44.708;37.644;2023-12-14T09:35:35;12.70;73.47
75786;DHT22;64402;44.708;37.644;2023-12-14T09:38:06;12.66;73.51
75786;DHT22;64402;44.708;37.644;2023-12-14T09:40:33;12.70;74.12
75786;DHT22;64402;44.708;37.644;2023-12-14T09:43:01;12.75;73.01
75786;DHT22;64402;44.708;37.644;2023-12-14T09:45:28;12.76;72.00
75786;DHT22;64402;44.708;37.644;2023-12-14T09:47:59;12.85;70.97
75786;DHT22;64402;44.708;37.644;2023-12-14T09:50:26;12.84;70.70
75786;DHT22;64402;44.708;37.644;2023-12-14T09:52:52;12.80;71.69
75786;DHT22;64402;44.708;37.644;2023-12-14T09:55:19;12.86;71.68
75786;DHT22;64402;44.708;37.644;2023-12-14T09:57:45;12.96;71.48
75786;DHT22;64402;44.708;37.644;2023-12-14T10:00:12;13.01;70.95
75786;DHT22;64402;44.708;37.644;2023-12-14T10:02:40;13.05;69.88
75786;DHT22;64402;44.708;37.644;2023-12-14T10:05:09;13.04;69.99
75786;DHT22;64402;44.708;37.644;2023-12-14T10:07:42;13.01;70.02
75786;DHT22;64402;44.708;37.644;2023-12-14T10:10:13;13.15;70.08
75786;DHT22;64402;44.708;37.644;2023-12-14T10:12:58;13.31;68.74
75786;DHT22;64402;44.708;37.644;2023-12-14T10:15:26;13.49;68.75
75786;DHT22;64402;44.708;37.644;2023-12-14T10:17:53;13.54;68.97
75786;DHT22;64402;44.708;37.644;2023-12-14T10:20:20;13.77;68.26
75786;DHT22;64402;44.708;37.644;2023-12-14T10:22:50;13.74;67.83
75786;DHT22;64402;44.708;37.644;2023-12-14T10:25:18;13.74;68.52
75786;DHT22;64402;44.708;37.644;2023-12-14T10:27:51;13.73;67.88
75786;DHT22;64402;44.708;37.644;2023-12-14T10:30:19;13.78;67.52
75786;DHT22;64402;44.708;37.644;2023-12-14T10:32:48;13.71;67.02
75786;DHT22;64402;44.708;37.644;2023-12-14T10:35:16;13.63;68.11
75786;DHT22;64402;44.708;37.644;2023-12-14T10:37:43;13.47;68.93
75786;DHT22;64402;44.708;37.644;2023-12-14T10:40:09;13.26;70.06
75786;DHT22;64402;44.708;37.644;2023-12-14T10:42:40;13.16;70.87
75786;DHT22;64402;44.708;37.644;2023-12-14T10:45:11;13.10;70.64
75786;DHT22;64402;44.708;37.644;2023-12-14T10:47:43;13.09;70.26
75786;DHT22;64402;44.708;37.644;2023-12-14T10:50:10;13.15;70.74
75786;DHT22;64402;44.708;37.644;2023-12-14T10:52:38;13.02;69.62
75786;DHT22;64402;44.708;37.644;2023-12-14T10:55:09;12.99;69.99
75786;DHT22;64402;44.708;37.644;2023-12-14T10:57:38;13.01;70.29
75786;DHT22;64402;44.708;37.644;2023-12-14T11:00:05;12.95;71.10
75786;DHT22;64402;44.708;37.644;2023-12-14T11:02:41;12.93;71.51
75786;DHT22;64402;44.708;37.644;2023-12-14T11:05:12;13.05;71.19
75786;DHT22;64402;44.708;37.644;2023-12-14T11:07:48;13.04;70.25
75786;DHT22;64402;44.708;37.644;2023-12-14T11:10:19;13.12;70.74
75786;DHT22;64402;44.708;37.644;2023-12-14T11:13:00;13.16;70.84
75786;DHT22;64402;44.708;37.644;2023-12-14T11:15:28;13.25;70.81
75786;DHT22;64402;44.708;37.644;2023-12-14T11:23:35;13.34;68.78
75786;DHT22;64402;44.708;37.644;2023-12-14T11:26:08;13.48;69.40
75786;DHT22;64402;44.708;37.644;2023-12-14T11:28:40;13.60;68.98
75786;DHT22;64402;44.708;37.644;2023-12-14T11:31:10;13.60;68.42
75786;DHT22;64402;44.708;37.644;2023-12-14T11:33:36;13.61;68.53
75786;DHT22;64402;44.708;37.644;2023-12-14T11:36:03;13.56;67.96
75786;DHT22;64402;44.708;37.644;2023-12-14T11:38:30;13.36;69.34
75786;DHT22;64402;44.708;37.644;2023-12-14T11:40:57;13.27;70.03
75786;DHT22;64402;44.708;37.644;2023-12-14T11:43:23;13.17;70.44
75786;DHT22;64402;44.708;37.644;2023-12-14T11:45:53;13.14;71.08
75786;DHT22;64402;44.708;37.644;2023-12-14T11:48:23;13.06;71.25
75786;DHT22;64402;44.708;37.644;2023-12-14T11:50:49;13.04;71.16
75786;DHT22;64402;44.708;37.644;2023-12-14T11:53:15;12.91;71.00
75786;DHT22;64402;44.708;37.644;2023-12-14T11:55:43;12.82;71.64
75786;DHT22;64402;44.708;37.644;2023-12-14T11:58:12;12.79;72.13
75786;DHT22;64402;44.708;37.644;2023-12-14T12:00:41;12.74;72.87
75786;DHT22;64402;44.708;37.644;2023-12-14T12:03:11;12.72;72.07
75786;DHT22;64402;44.708;37.644;2023-12-14T12:05:40;12.66;72.29
75786;DHT22;64402;44.708;37.644;2023-12-14T12:08:08;12.60;71.84
75786;DHT22;64402;44.708;37.644;2023-12-14T12:10:34;12.61;72.59
75786;DHT22;64402;44.708;37.644;2023-12-14T12:13:02;12.59;72.83
75786;DHT22;64402;44.708;37.644;2023-12-14T12:15:32;12.57;71.85
75786;DHT22;64402;44.708;37.644;2023-12-14T12:17:59;12.58;72.34
75786;DHT22;64402;44.708;37.644;2023-12-14T12:20:25;12.58;72.09
75786;DHT22;64402;44.708;37.644;2023-12-14T12:22:52;12.52;72.43
75786;DHT22;64402;44.708;37.644;2023-12-14T12:25:20;12.56;72.63
75786;DHT22;64402;44.708;37.644;2023-12-14T12:27:46;12.58;72.22
75786;DHT22;64402;44.708;37.644;2023-12-14T12:30:13;12.60;72.37
75786;DHT22;64402;44.708;37.644;2023-12-14T12:32:41;12.61;71.59
75786;DHT22;64402;44.708;37.644;2023-12-14T12:35:07;12.61;71.67
75786;DHT22;64402;44.708;37.644;2023-12-14T12:37:34;12.55;71.22
75786;DHT22;64402;44.708;37.644;2023-12-14T12:40:06;12.53;72.00
75786;DHT22;64402;44.708;37.644;2023-12-14T12:42:33;12.49;72.16
75786;DHT22;64402;44.708;37.644;2023-12-14T12:45:00;12.47;72.26
75786;DHT22;64402;44.708;37.644;2023-12-14T12:47:26;12.45;72.77
75786;DHT22;64402;44.708;37.644;2023-12-14T12:49:53;12.41;73.06
75786;DHT22;64402;44.708;37.644;2023-12-14T12:52:19;12.34;73.77
75786;DHT22;64402;44.708;37.644;2023-12-14T12:54:45;12.33;74.38
75786;DHT22;64402;44.708;37.644;2023-12-14T12:57:11;12.31;74.22
75786;DHT22;64402;44.708;37.644;2023-12-14T12:59:38;12.29;73.94
75786;DHT22;64402;44.708;37.644;2023-12-14T13:02:04;12.26;74.12
75786;DHT22;64402;44.708;37.644;2023-12-14T13:04:31;12.22;74.70
75786;DHT22;64402;44.708;37.644;2023-12-14T13:06:57;12.20;74.73
75786;DHT22;64402;44.708;37.644;2023-12-14T13:09:24;12.18;74.28
75786;DHT22;64402;44.708;37.644;2023-12-14T13:11:50;12.16;74.24
75786;DHT22;64402;44.708;37.644;2023-12-14T13:14:16;12.13;74.55
75786;DHT22;64402;44.708;37.644;2023-12-14T13:16:43;12.13;74.43
75786;DHT22;64402;44.708;37.644;2023-12-14T13:19:09;12.10;73.98
75786;DHT22;64402;44.708;37.644;2023-12-14T13:21:36;12.11;73.96
75786;DHT22;64402;44.708;37.644;2023-12-14T13:24:02;12.11;74.41
75786;DHT22;64402;44.708;37.644;2023-12-14T13:26:29;12.07;73.61
75786;DHT22;64402;44.708;37.644;2023-12-14T13:28:56;12.07;72.97
75786;DHT22;64402;44.708;37.644;2023-12-14T13:31:24;12.04;72.91
75786;DHT22;64402;44.708;37.644;2023-12-14T13:33:51;12.03;72.99
75786;DHT22;64402;44.708;37.644;2023-12-14T13:36:18;12.00;73.79
75786;DHT22;64402;44.708;37.644;2023-12-14T13:38:45;11.99;74.18
75786;DHT22;64402;44.708;37.644;2023-12-14T13:41:11;12.00;73.57
75786;DHT22;64402;44.708;37.644;2023-12-14T13:43:37;11.97;73.78
75786;DHT22;64402;44.708;37.644;2023-12-14T13:46:04;11.97;73.44
75786;DHT22;64402;44.708;37.644;2023-12-14T13:48:30;11.97;73.25
75786;DHT22;64402;44.708;37.644;2023-12-14T13:50:56;11.97;73.52
75786;DHT22;64402;44.708;37.644;2023-12-14T13:53:23;11.96;73.56
75786;DHT22;64402;44.708;37.644;2023-12-14T13:55:49;11.96;74.12
75786;DHT22;64402;44.708;37.644;2023-12-14T13:58:15;11.96;74.15
75786;DHT22;64402;44.708;37.644;2023-12-14T14:00:43;11.96;74.24
75786;DHT22;64402;44.708;37.644;2023-12-14T14:03:09;11.96;74.68
75786;DHT22;64402;44.708;37.644;2023-12-14T14:05:36;11.96;73.99
75786;DHT22;64402;44.708;37.644;2023-12-14T14:08:02;11.94;74.19
75786;DHT22;64402;44.708;37.644;2023-12-14T14:10:29;11.94;75.06
75786;DHT22;64402;44.708;37.644;2023-12-14T14:12:55;11.93;75.01
75786;DHT22;64402;44.708;37.644;2023-12-14T14:15:22;11.94;74.65
75786;DHT22;64402;44.708;37.644;2023-12-14T14:17:48;11.97;75.38
75786;DHT22;64402;44.708;37.644;2023-12-14T14:20:18;11.97;75.73
75786;DHT22;64402;44.708;37.644;2023-12-14T14:22:44;11.97;75.55
75786;DHT22;64402;44.708;37.644;2023-12-14T14:25:11;11.97;75.94
75786;DHT22;64402;44.708;37.644;2023-12-14T14:27:37;11.93;75.96
75786;DHT22;64402;44.708;37.644;2023-12-14T14:30:04;11.94;76.41
75786;DHT22;64402;44.708;37.644;2023-12-14T14:32:30;11.96;76.70
75786;DHT22;64402;44.708;37.644;2023-12-14T14:34:57;11.93;75.79
75786;DHT22;64402;44.708;37.644;2023-12-14T14:37:26;11.94;76.48
75786;DHT22;64402;44.708;37.644;2023-12-14T14:39:52;11.96;76.90
75786;DHT22;64402;44.708;37.644;2023-12-14T14:42:18;11.97;76.70
75786;DHT22;64402;44.708;37.644;2023-12-14T14:44:44;11.97;77.20
75786;DHT22;64402;44.708;37.644;2023-12-14T14:47:11;11.98;77.03
75786;DHT22;64402;44.708;37.644;2023-12-14T14:49:37;11.98;76.98
75786;DHT22;64402;44.708;37.644;2023-12-14T14:52:03;12.00;77.22
75786;DHT22;64402;44.708;37.644;2023-12-14T14:54:29;12.00;77.79
75786;DHT22;64402;44.708;37.644;2023-12-14T14:56:56;11.99;77.95
75786;DHT22;64402;44.708;37.644;2023-12-14T14:59:22;11.99;78.00
75786;DHT22;64402;44.708;37.644;2023-12-14T15:01:48;11.99;78.53
75786;DHT22;64402;44.708;37.644;2023-12-14T15:04:15;11.98;78.63
75786;DHT22;64402;44.708;37.644;2023-12-14T15:06:41;11.93;78.39
75786;DHT22;64402;44.708;37.644;2023-12-14T15:09:07;11.94;77.68
75786;DHT22;64402;44.708;37.644;2023-12-14T15:11:34;11.96;77.80
75786;DHT22;64402;44.708;37.644;2023-12-14T15:14:00;11.96;77.41
75786;DHT22;64402;44.708;37.644;2023-12-14T15:16:26;11.96;78.26
75786;DHT22;64402;44.708;37.644;2023-12-14T15:18:52;11.98;78.63
75786;DHT22;64402;44.708;37.644;2023-12-14T15:21:19;12.00;79.07
75786;DHT22;64402;44.708;37.644;2023-12-14T15:23:45;12.00;79.11
75786;DHT22;64402;44.708;37.644;2023-12-14T15:26:14;12.01;79.00